Time;durP1;ratioP1;P1;durP2;ratioP2;P2;SDS_P1;SDS_P2;PMS_P1;PMS_P2;Temp;Humidity;BMP_temperature;BMP_pressure;BME280_temperature;BME280_humidity;BME280_pressure;Samples;Min_cycle;Max_cycle;Signal;HPM_P1;HPM_P2
2021/03/25 00:01:38;;;;;;;44.65;28.20;;;;;;;;;;5096798;28;20035;-72
2021/03/25 00:04:04;;;;;;;43.63;28.92;;;;;;;;;;5098399;28;20023;-69
2021/03/25 00:06:31;;;;;;;49.08;29.08;;;;;;;;;;5097436;28;20062;-70
2021/03/25 00:08:58;;;;;;;49.20;29.17;;;;;;;;;;5073924;28;20058;-69
2021/03/25 00:11:23;;;;;;;53.80;31.13;;;26.10;2201.60;;;;;;5088076;28;20381;-74
2021/03/25 00:13:49;;;;;;;63.67;33.10;;;26.00;2201.60;;;;;;5090825;28;20035;-76
2021/03/25 00:16:16;;;;;;;56.25;30.48;;;26.00;2201.60;;;;;;5097670;28;20469;-70
2021/03/25 00:18:43;;;;;;;47.92;29.40;;;26.00;2201.60;;;;;;5097623;28;20392;-71
2021/03/25 00:21:10;;;;;;;49.53;29.60;;;0.90;2201.60;;;;;;5098829;28;20362;-76
2021/03/25 00:23:37;;;;;;;50.60;29.42;;;25.90;2201.60;;;;;;5082801;28;20389;-71
2021/03/25 00:26:03;;;;;;;45.20;28.17;;;25.80;2201.60;;;;;;5080769;28;20032;-81
2021/03/25 00:28:29;;;;;;;42.70;26.80;;;25.80;2201.60;;;;;;5099467;28;20032;-69
2021/03/25 00:30:54;;;;;;;42.65;27.13;;;25.80;2201.60;;;;;;5098430;28;20024;-83
2021/03/25 00:33:24;;;;;;;39.90;27.15;;;25.80;2201.60;;;;;;5099796;28;20032;-68
2021/03/25 00:35:50;;;;;;;42.78;27.35;;;25.80;2201.60;;;;;;5100126;28;20020;-75
2021/03/25 00:38:17;;;;;;;40.63;26.17;;;25.80;2201.60;;;;;;5100682;28;20654;-70
2021/03/25 00:40:45;;;;;;;43.00;26.50;;;25.80;2201.60;;;;;;5102390;28;20473;-81
2021/03/25 00:43:12;;;;;;;42.10;26.27;;;25.80;2201.60;;;;;;5083913;28;20392;-73
2021/03/25 00:45:43;;;;;;;38.75;24.65;;;25.70;2201.60;;;;;;5099751;28;20120;-81
2021/03/25 00:48:10;;;;;;;41.72;25.75;;;25.70;2201.60;;;;;;5103062;28;20099;-76
2021/03/25 00:50:39;;;;;;;39.53;25.92;;;25.70;2201.60;;;;;;5100150;28;20044;-69
2021/03/25 00:53:07;;;;;;;39.25;24.98;;;25.70;2201.60;;;;;;5101526;28;20094;-72
2021/03/25 00:55:33;;;;;;;37.05;25.40;;;25.70;2201.60;;;;;;5100310;28;20031;-73
2021/03/25 00:57:59;;;;;;;37.67;24.83;;;25.70;2201.60;;;;;;5098373;28;20080;-70
2021/03/25 01:00:32;;;;;;;43.08;25.85;;;;;;;;;;5104744;28;20042;-70
2021/03/25 01:02:59;;;;;;;40.72;26.58;;;;;;;;;;5107829;28;20028;-70
2021/03/25 01:05:25;;;;;;;43.75;25.58;;;;;;;;;;5107011;28;20026;-69
2021/03/25 01:07:52;;;;;;;42.20;25.73;;;;;;;;;;5090097;28;20362;-70
2021/03/25 01:10:20;;;;;;;43.42;26.02;;;;;;;;;;5107105;28;20020;-69
2021/03/25 01:12:47;;;;;;;39.75;26.02;;;;;;;;;;5107947;28;20032;-69
2021/03/25 01:15:13;;;;;;;40.67;24.25;;;;;;;;;;5107275;28;20527;-70
2021/03/25 01:17:42;;;;;;;39.13;25.58;;;;;;;;;;5093030;28;20024;-67
2021/03/25 01:20:13;;;;;;;38.95;24.52;;;25.80;2201.60;;;;;;5108559;28;20024;-74
2021/03/25 01:22:39;;;;;;;38.65;25.35;;;25.80;2201.60;;;;;;5106291;28;20024;-72
2021/03/25 01:25:05;;;;;;;39.50;25.10;;;;;;;;;;5107246;28;20012;-70
2021/03/25 01:27:31;;;;;;;40.08;24.45;;;;;;;;;;5108084;28;20055;-66
2021/03/25 01:29:59;;;;;;;42.15;25.42;;;;;;;;;;5110013;28;20024;-68
2021/03/25 01:32:25;;;;;;;37.50;25.35;;;;;;;;;;5112326;28;20030;-71
2021/03/25 01:34:51;;;;;;;37.83;23.90;;;;;;;;;;5106071;28;20028;-68
2021/03/25 01:37:17;;;;;;;42.42;24.92;;;;;;;;;;5104356;28;20060;-68
2021/03/25 01:39:43;;;;;;;38.00;25.98;;;;;;;;;;5085609;28;20028;-69
2021/03/25 01:42:39;;;;;;;34.60;23.88;;;;;;;;;;5101498;28;20032;-68
2021/03/25 01:45:23;;;;;;;34.50;23.60;;;;;;;;;;5020870;28;20074;-68
2021/03/25 01:47:49;;;;;;;37.05;23.95;;;;;;;;;;5018189;28;20457;-68
2021/03/25 01:50:15;;;;;;;34.88;23.38;;;;;;;;;;5004869;28;20030;-81
2021/03/25 01:52:47;;;;;;;33.55;23.02;;;;;;;;;;5018485;28;20050;-69
2021/03/25 01:55:54;;;;;;;38.08;23.90;;;25.70;2201.60;;;;;;5016162;28;20033;-68
2021/03/25 01:58:37;;;;;;;35.45;23.05;;;0.90;2201.60;;;;;;5020166;28;20072;-69
2021/03/25 02:01:22;;;;;;;36.17;22.60;;;0.90;2201.60;;;;;;5021238;28;20018;-81
2021/03/25 02:03:56;;;;;;;36.08;22.88;;;0.90;2201.60;;;;;;5009650;28;20030;-71
2021/03/25 02:06:43;;;;;;;35.90;22.55;;;0.90;2201.60;;;;;;5017252;28;20057;-68
2021/03/25 02:09:19;;;;;;;37.03;23.67;;;0.90;2201.60;;;;;;5021087;28;20150;-68
2021/03/25 02:11:59;;;;;;;31.95;21.92;;;0.90;2201.60;;;;;;5021781;28;20022;-68
2021/03/25 02:14:35;;;;;;;31.48;21.73;;;0.90;2201.60;;;;;;5020977;28;20025;-78
2021/03/25 02:17:09;;;;;;;36.92;21.95;;;0.90;2201.60;;;;;;5017292;28;20030;-75
2021/03/25 02:19:57;;;;;;;35.47;22.20;;;0.90;2201.60;;;;;;5019283;28;20126;-69
2021/03/25 02:22:45;;;;;;;34.78;22.23;;;0.90;2201.60;;;;;;5092909;28;20389;-68
2021/03/25 02:25:19;;;;;;;39.47;22.00;;;0.90;2201.60;;;;;;5101985;28;20031;-68
2021/03/25 02:28:29;;;;;;;31.83;21.10;;;0.80;2201.60;;;;;;5102106;28;20028;-70
2021/03/25 02:31:18;;;;;;;33.88;21.15;;;0.80;2201.60;;;;;;4995997;28;20054;-68
2021/03/25 02:33:51;;;;;;;30.60;20.38;;;0.80;2201.60;;;;;;5004412;28;20086;-70
2021/03/25 02:36:22;;;;;;;31.45;20.70;;;0.80;2201.60;;;;;;5003992;28;20065;-70
2021/03/25 02:38:54;;;;;;;30.67;19.77;;;0.80;2201.60;;;;;;5003397;28;20090;-68
2021/03/25 02:41:29;;;;;;;31.63;19.38;;;0.80;2201.60;;;;;;5004327;28;20038;-68
2021/03/25 02:44:04;;;;;;;29.67;20.15;;;0.80;2201.60;;;;;;5002724;28;20030;-68
2021/03/25 02:46:39;;;;;;;30.88;19.58;;;0.80;2201.60;;;;;;5000816;28;20539;-70
2021/03/25 02:49:10;;;;;;;30.73;19.30;;;0.70;2201.60;;;;;;4997533;28;20046;-68
2021/03/25 02:51:37;;;;;;;29.75;20.50;;;0.70;2201.60;;;;;;4999636;28;20128;-69
2021/03/25 02:54:04;;;;;;;30.38;18.33;;;0.70;2201.60;;;;;;4993266;28;20130;-76
2021/03/25 02:56:39;;;;;;;30.80;19.10;;;0.70;2201.60;;;;;;5002423;28;20468;-77
2021/03/25 02:59:21;;;;;;;33.17;20.27;;;0.60;2201.60;;;;;;4996522;28;20033;-73
2021/03/25 03:01:51;;;;;;;31.40;19.30;;;0.60;2201.60;;;;;;4998688;28;20066;-71
2021/03/25 03:04:23;;;;;;;27.02;18.33;;;0.50;2201.60;;;;;;5006413;28;20037;-70
2021/03/25 03:07:01;;;;;;;26.30;18.35;;;0.50;2201.60;;;;;;5029119;28;20039;-74
2021/03/25 03:09:34;;;;;;;28.73;19.17;;;0.40;2201.60;;;;;;5106166;28;20020;-70
2021/03/25 03:12:03;;;;;;;27.73;19.40;;;0.40;2201.60;;;;;;5108578;28;20016;-69
2021/03/25 03:14:37;;;;;;;32.22;19.17;;;0.30;2201.60;;;;;;5104737;28;20024;-68
2021/03/25 03:17:11;;;;;;;26.55;18.33;;;0.30;2201.60;;;;;;5109581;28;20102;-70
2021/03/25 03:19:44;;;;;;;29.85;18.73;;;0.20;2201.60;;;;;;5107202;28;20024;-69
2021/03/25 03:22:10;;;;;;;28.02;19.02;;;0.20;2201.60;;;;;;5090990;28;20012;-70
2021/03/25 03:24:37;;;;;;;29.55;19.60;;;0.10;2201.60;;;;;;5108543;28;20528;-70
2021/03/25 03:27:08;;;;;;;28.05;18.60;;;0.10;2201.60;;;;;;5107455;28;20035;-70
2021/03/25 03:29:35;;;;;;;32.20;18.42;;;0.10;2201.60;;;;;;5106349;28;20024;-68
2021/03/25 03:32:33;;;;;;;28.27;19.40;;;0.10;2201.60;;;;;;5104309;28;20075;-68
2021/03/25 03:35:22;;;;;;;34.00;20.15;;;0.10;2201.60;;;;;;5080955;28;20013;-69
2021/03/25 03:37:54;;;;;;;30.77;19.63;;;0.10;2201.60;;;;;;5102555;28;20028;-68
2021/03/25 03:40:24;;;;;;;30.42;20.35;;;0.10;2201.60;;;;;;5107639;28;20016;-69
2021/03/25 03:42:52;;;;;;;33.97;20.75;;;0.10;2201.60;;;;;;5111364;28;20033;-67
2021/03/25 03:45:22;;;;;;;35.00;20.77;;;0.20;2201.60;;;;;;5102251;28;20028;-68
2021/03/25 03:47:50;;;;;;;37.25;22.98;;;0.20;2201.60;;;;;;5109787;28;20473;-66
2021/03/25 03:50:42;;;;;;;39.10;23.33;;;0.20;2201.60;;;;;;5104731;28;20032;-77
2021/03/25 03:53:08;;;;;;;42.83;23.52;;;0.20;2201.60;;;;;;5080217;28;20036;-66
2021/03/25 03:55:34;;;;;;;41.55;23.35;;;0.10;2201.60;;;;;;5080577;28;20024;-68
2021/03/25 03:58:26;;;;;;;37.85;23.38;;;0.20;2201.60;;;;;;5081561;28;20043;-67
2021/03/25 04:00:52;;;;;;;36.97;22.17;;;0.20;2201.60;;;;;;5083688;28;20013;-71
2021/03/25 04:03:41;;;;;;;30.23;19.45;;;0.20;2201.60;;;;;;5091464;28;20081;-70
2021/03/25 04:06:38;;;;;;;26.65;17.58;;;0.20;2201.60;;;;;;5087201;28;20067;-70
2021/03/25 04:09:22;;;;;;;28.15;17.08;;;0.20;2201.60;;;;;;5066642;28;20041;-71
2021/03/25 04:11:48;;;;;;;25.50;15.82;;;0.20;2201.60;;;;;;5079041;28;20048;-71
2021/03/25 04:14:20;;;;;;;24.85;15.07;;;0.10;2201.60;;;;;;5087214;28;20096;-70
2021/03/25 04:16:47;;;;;;;24.02;15.23;;;0.10;2201.60;;;;;;5083313;28;20028;-70
2021/03/25 04:19:22;;;;;;;24.45;14.80;;;0.10;2201.60;;;;;;5081521;28;20059;-68
2021/03/25 04:22:03;;;;;;;23.75;13.55;;;0.10;2201.60;;;;;;5088334;28;20033;-67
2021/03/25 04:24:35;;;;;;;24.35;14.32;;;0.10;2201.60;;;;;;5063525;28;20036;-68
2021/03/25 04:27:18;;;;;;;22.13;12.73;;;0.10;2201.60;;;;;;5081278;28;20068;-68
2021/03/25 04:29:56;;;;;;;29.55;15.95;;;0.10;2201.60;;;;;;5063878;28;20040;-68
2021/03/25 04:32:22;;;;;;;22.90;13.50;;;0.10;2201.60;;;;;;5073215;28;20020;-67
2021/03/25 04:34:49;;;;;;;21.95;13.57;;;0.10;2201.60;;;;;;5091117;28;20040;-67
2021/03/25 04:37:16;;;;;;;17.80;12.07;;;0.10;2201.60;;;;;;5079273;28;20036;-68
2021/03/25 04:40:02;;;;;;;23.58;13.73;;;0.10;2201.60;;;;;;5074486;28;20073;-69
2021/03/25 04:42:28;;;;;;;24.80;14.90;;;0.10;2201.60;;;;;;5089784;28;20019;-67
2021/03/25 04:45:08;;;;;;;24.67;14.10;;;0.20;2201.60;;;;;;5091107;28;20038;-66
2021/03/25 04:47:39;;;;;;;23.65;14.70;;;0.20;2201.60;;;;;;5091205;28;20146;-68
2021/03/25 04:50:23;;;;;;;28.95;14.82;;;0.30;2201.60;;;;;;5089265;28;20032;-67
2021/03/25 04:52:59;;;;;;;23.13;13.55;;;0.30;2201.60;;;;;;5106510;28;20047;-68
2021/03/25 04:55:25;;;;;;;20.98;13.43;;;0.40;2201.60;;;;;;5096356;28;20016;-69
2021/03/25 04:57:58;;;;;;;24.25;13.32;;;0.50;2201.60;;;;;;5113747;28;20085;-70
2021/03/25 05:00:39;;;;;;;24.65;14.52;;;0.50;2201.60;;;;;;5114930;28;20070;-68
2021/03/25 05:03:18;;;;;;;27.60;14.63;;;0.60;2201.60;;;;;;5114703;28;20039;-67
2021/03/25 05:05:44;;;;;;;28.85;16.20;;;0.60;2201.60;;;;;;5113394;28;20004;-68
2021/03/25 05:08:17;;;;;;;30.98;17.48;;;0.70;2201.60;;;;;;5091208;28;20062;-71
2021/03/25 05:11:10;;;;;;;29.83;19.08;;;0.90;2201.60;;;;;;5094248;28;20010;-70
2021/03/25 05:13:42;;;;;;;25.08;17.33;;;25.90;2201.60;;;;;;5112192;28;20028;-71
2021/03/25 05:16:29;;;;;;;26.30;15.82;;;26.50;2201.60;;;;;;5106878;28;20107;-83
2021/03/25 05:19:26;;;;;;;22.35;14.32;;;51.60;2227.20;;;;;;5097453;28;20024;-81
2021/03/25 05:22:18;;;;;;;20.85;13.90;;;52.10;2227.20;;;;;;5047813;28;20123;-69
2021/03/25 05:24:57;;;;;;;22.30;13.57;;;77.50;2227.20;;;;;;5083223;28;20052;-79
2021/03/25 05:27:28;;;;;;;21.90;13.68;;;102.80;2227.20;;;;;;5080562;28;20044;-74
2021/03/25 05:29:57;;;;;;;22.63;13.50;;;103.00;2227.20;;;;;;5090272;28;20078;-75
2021/03/25 05:32:30;;;;;;;24.50;14.73;;;103.00;2227.20;;;;;;5089536;28;20024;-71
2021/03/25 05:35:01;;;;;;;20.92;14.55;;;128.20;2252.80;;;;;;5079021;28;20054;-82
2021/03/25 05:37:27;;;;;;;26.83;15.85;;;128.90;2252.80;;;;;;5100130;28;20039;-68
2021/03/25 05:39:53;;;;;;;22.67;14.90;;;154.10;2252.80;;;;;;5098158;28;20042;-68
2021/03/25 05:42:47;;;;;;;26.27;17.85;;;179.20;2099.20;;;;;;5095841;28;20389;-82
2021/03/25 05:45:27;;;;;;;29.40;18.42;;;180.00;1996.80;;;;;;5092537;28;20029;-76
2021/03/25 05:48:31;;;;;;;23.10;15.40;;;205.30;1971.20;;;;;;5091053;28;20044;-79
2021/03/25 05:51:20;;;;;;;23.27;14.52;;;230.70;1817.60;;;;;;5090565;28;20048;-71
2021/03/25 05:54:00;;;;;;;21.15;14.55;;;231.30;1638.40;;;;;;5090380;28;20032;-87
2021/03/25 05:56:53;;;;;;;24.02;15.50;;;256.30;1689.60;;;;;;5074974;28;20894;-69
2021/03/25 05:59:21;;;;;;;25.90;19.87;;;;;;;;;;5090677;28;20059;-80
2021/03/25 06:01:51;;;;;;;25.10;18.05;;;;;;;;;;5091493;28;20032;-77
2021/03/25 06:04:30;;;;;;;22.38;16.58;;;;;;;;;;5090891;28;20051;-73
2021/03/25 06:07:12;;;;;;;24.75;17.20;;;;;;;;;;5092929;28;20481;-66
2021/03/25 06:09:38;;;;;;;27.75;17.65;;;;;;;;;;5091496;28;20032;-67
2021/03/25 06:12:16;;;;;;;25.60;17.63;;;;;;;;;;5075097;28;20069;-87
2021/03/25 06:15:01;;;;;;;25.20;19.33;;;;;;;;;;5075514;28;20028;-74
2021/03/25 06:17:47;;;;;;;26.13;19.10;;;;;;;;;;5096180;28;20043;-69
2021/03/25 06:20:16;;;;;;;28.00;18.98;;;;;;;;;;5077240;28;20051;-86
2021/03/25 06:22:42;;;;;;;26.65;21.38;;;;;;;;;;5092954;28;20091;-75
2021/03/25 06:25:23;;;;;;;32.78;24.05;;;;;;;;;;5093902;28;20031;-66
2021/03/25 06:27:49;;;;;;;31.35;26.35;;;;;;;;;;5091986;28;20031;-78
2021/03/25 06:30:19;;;;;;;39.90;30.65;;;;;;;;;;5096768;28;20028;-70
2021/03/25 06:32:57;;;;;;;44.60;31.00;;;;;;;;;;5092639;28;20053;-73
2021/03/25 06:35:29;;;;;;;44.40;32.28;;;;;;;;;;5090250;28;20024;-66
2021/03/25 06:37:57;;;;;;;40.45;31.48;;;;;;;;;;5092478;28;20024;-82
2021/03/25 06:40:26;;;;;;;39.95;31.88;;;;;;;;;;5092419;28;20063;-80
2021/03/25 06:43:00;;;;;;;42.40;32.78;;;;;;;;;;5092674;28;20055;-78
2021/03/25 06:45:35;;;;;;;33.50;27.70;;;;;;;;;;5088068;28;20028;-79
2021/03/25 06:48:05;;;;;;;40.10;30.45;;;;;;;;;;5072086;28;20123;-84
2021/03/25 06:50:36;;;;;;;38.90;30.38;;;;;;;;;;5092044;28;20052;-81
2021/03/25 06:53:21;;;;;;;35.80;28.10;;;;;;;;;;5092016;28;20032;-80
2021/03/25 06:55:48;;;;;;;37.22;27.85;;;;;;;;;;5091865;28;20035;-71
2021/03/25 06:58:17;;;;;;;34.75;27.92;;;;;;;;;;5091660;28;20077;-72
2021/03/25 07:00:48;;;;;;;32.88;27.92;;;;;;;;;;5086030;28;20032;-67
2021/03/25 07:03:17;;;;;;;33.05;28.70;;;;;;;;;;5089410;28;20020;-70
2021/03/25 07:05:45;;;;;;;34.53;27.65;;;;;;;;;;5090257;28;20446;-70
2021/03/25 07:08:14;;;;;;;32.20;27.15;;;;;;;;;;5090443;28;20056;-70
2021/03/25 07:10:41;;;;;;;31.42;27.10;;;;;;;;;;5091219;28;20400;-72
2021/03/25 07:13:08;;;;;;;32.42;26.95;;;435.20;1228.80;;;;;;5090525;28;20035;-77
2021/03/25 07:15:36;;;;;;;32.05;27.30;;;384.60;1331.20;;;;;;5090446;28;20095;-80
2021/03/25 07:18:19;;;;;;;33.63;27.25;;;384.20;1382.40;;;;;;5091271;28;20055;-75
2021/03/25 07:20:45;;;;;;;32.65;27.75;;;384.80;1356.80;;;;;;5092273;28;20035;-72
2021/03/25 07:23:14;;;;;;;31.23;26.77;;;435.20;1280.00;;;;;;5092162;28;20020;-80
2021/03/25 07:25:41;;;;;;;35.08;26.85;;;;;;;;;;5089899;28;20012;-76
2021/03/25 07:28:16;;;;;;;62.97;51.95;;;;;;;;;;5091407;28;20050;-73
2021/03/25 07:30:50;;;;;;;33.92;28.80;;;;;;;;;;5090625;28;20031;-71
2021/03/25 07:33:18;;;;;;;28.08;24.92;;;;;;;;;;5091653;28;20419;-72
2021/03/25 07:35:46;;;;;;;28.33;25.25;;;;;;;;;;5088358;28;20024;-70
2021/03/25 07:38:32;;;;;;;28.38;24.02;;;;;;;;;;5088385;28;20070;-79
2021/03/25 07:41:18;;;;;;;26.40;23.10;;;;;;;;;;5090957;28;20024;-72
2021/03/25 07:43:50;;;;;;;29.65;26.33;;;;;;;;;;5089201;28;20017;-70
2021/03/25 07:46:40;;;;;;;32.08;28.55;;;;;;;;;;5056301;28;20095;-68
2021/03/25 07:49:13;;;;;;;37.05;32.00;;;;;;;;;;5001741;28;20046;-69
2021/03/25 07:51:49;;;;;;;38.85;31.30;;;;;;;;;;5000421;28;20038;-74
2021/03/25 07:54:24;;;;;;;34.17;28.73;;;;;;;;;;4991526;28;20034;-69
2021/03/25 07:57:09;;;;;;;30.48;26.55;;;512.30;1024.00;;;;;;5003872;28;20027;-74
2021/03/25 07:59:51;;;;;;;29.52;26.27;;;512.40;1024.00;;;;;;4991182;28;20513;-74
2021/03/25 08:02:20;;;;;;;28.58;24.40;;;;;;;;;;5002977;28;20029;-70
2021/03/25 08:04:45;;;;;;;29.58;25.85;;;512.40;1024.00;;;;;;5002316;28;20054;-72
2021/03/25 08:07:12;;;;;;;28.83;25.05;;;487.10;1075.20;;;;;;5001481;28;20144;-68
2021/03/25 08:09:58;;;;;;;33.47;24.85;;;;;;;;;;5001184;28;20166;-76
2021/03/25 08:12:30;;;;;;;30.88;25.17;;;;;;;;;;5009564;28;20115;-70
2021/03/25 08:15:32;;;;;;;31.73;24.77;;;461.50;1126.40;;;;;;5011242;28;20084;-72
2021/03/25 08:18:04;;;;;;;29.38;24.30;;;;;;;;;;5010573;28;20022;-68
2021/03/25 08:20:38;;;;;;;40.07;33.03;;;435.80;1177.60;;;;;;5011616;28;20044;-72
2021/03/25 08:23:25;;;;;;;42.15;32.70;;;410.50;1254.40;;;;;;5003303;28;20044;-71
2021/03/25 08:26:11;;;;;;;43.58;32.28;;;;;;;;;;5035239;28;20028;-72
2021/03/25 08:28:37;;;;;;;33.33;27.73;;;384.60;1331.20;;;;;;5086829;28;21361;-68
2021/03/25 08:31:27;;;;;;;36.20;26.25;;;384.00;1382.40;;;;;;5091289;28;20489;-69
2021/03/25 08:33:53;;;;;;;38.97;27.98;;;;;;;;;;5090760;28;20373;-67
2021/03/25 08:36:19;;;;;;;32.42;25.95;;;333.70;1459.20;;;;;;5092904;28;20477;-68
2021/03/25 08:39:11;;;;;;;39.60;27.23;;;333.40;1510.40;;;;;;5093924;28;20111;-68
2021/03/25 08:42:04;;;;;;;31.50;25.95;;;333.20;1536.00;;;;;;5091119;28;20889;-69
2021/03/25 08:44:30;;;;;;;37.30;25.38;;;332.80;1587.20;;;;;;5094586;28;20031;-73
2021/03/25 08:46:57;;;;;;;34.15;23.90;;;;;;;;;;5094956;28;20437;-70
2021/03/25 08:49:42;;;;;;;29.08;23.17;;;307.60;1638.40;;;;;;5073899;28;20055;-69
2021/03/25 08:52:14;;;;;;;29.92;23.80;;;307.40;1664.00;;;;;;5093273;28;20044;-76
2021/03/25 08:54:59;;;;;;;33.28;23.23;;;307.20;1715.20;;;;;;5095243;28;20099;-66
2021/03/25 08:57:29;;;;;;;31.55;24.17;;;;;;;;;;5093451;28;20099;-71
2021/03/25 09:00:14;;;;;;;31.85;23.60;;;282.10;1766.40;;;;;;5093457;28;20579;-75
2021/03/25 09:02:50;;;;;;;34.58;24.00;;;282.30;1792.00;;;;;;5094005;28;20115;-80
2021/03/25 09:05:24;;;;;;;36.28;25.77;;;282.50;1715.20;;;;;;5092600;28;20106;-69
2021/03/25 09:07:52;;;;;;;37.60;26.63;;;307.20;1766.40;;;;;;5093694;28;20012;-73
2021/03/25 09:10:46;;;;;;;41.45;29.38;;;282.50;1766.40;;;;;;5094439;28;20428;-85
2021/03/25 09:13:15;;;;;;;49.70;31.92;;;282.30;1766.40;;;;;;5076255;28;20259;-83
2021/03/25 09:15:42;;;;;;;54.78;34.85;;;282.30;1920.00;;;;;;5094997;28;20541;-84
2021/03/25 09:18:13;;;;;;;63.80;37.30;;;282.40;1766.40;;;;;;5092650;28;20020;-84
2021/03/25 09:20:47;;;;;;;71.43;43.63;;;282.30;1766.40;;;;;;5090528;28;20525;-83
2021/03/25 09:23:31;;;;;;;79.80;44.10;;;282.30;1792.00;;;;;;5097916;28;20081;-84
2021/03/25 09:26:02;;;;;;;80.90;42.60;;;282.40;1740.80;;;;;;5094771;28;20024;-87
2021/03/25 09:28:58;;;;;;;65.85;39.30;;;282.30;1740.80;;;;;;5093162;28;20058;-83
2021/03/25 09:31:26;;;;;;;50.80;34.10;;;282.30;1740.80;;;;;;5091573;28;20035;-69
2021/03/25 09:34:00;;;;;;;48.45;30.40;;;282.50;1766.40;;;;;;5088930;28;20071;-77
2021/03/25 09:36:32;;;;;;;38.20;25.88;;;307.20;1740.80;;;;;;5093074;28;20012;-68
2021/03/25 09:38:57;;;;;;;41.10;23.75;;;307.20;1638.40;;;;;;5090164;28;20020;-74
2021/03/25 09:41:29;;;;;;;36.55;23.33;;;282.50;1587.20;;;;;;5092749;28;20020;-71
2021/03/25 09:44:19;;;;;;;35.42;25.55;;;282.50;1587.20;;;;;;5087324;28;20024;-76
2021/03/25 09:46:51;;;;;;;37.55;26.33;;;282.50;1587.20;;;;;;5092244;28;20492;-70
2021/03/25 09:52:08;;;;;;;22.98;16.83;;;282.10;1433.60;;;;;;5090249;28;20040;-81
2021/03/25 09:54:46;;;;;;;28.70;19.73;;;281.90;1536.00;;;;;;5089071;28;20069;-80
2021/03/25 09:57:26;;;;;;;39.60;24.45;;;281.90;1587.20;;;;;;5091060;28;20028;-74
2021/03/25 10:00:09;;;;;;;31.98;20.50;;;281.80;1561.60;;;;;;5067818;28;20071;-73
2021/03/25 10:02:38;;;;;;;21.95;15.77;;;282.00;1561.60;;;;;;5093634;28;20465;-83
2021/03/25 10:05:25;;;;;;;21.65;14.45;;;281.70;1561.60;;;;;;5093143;28;20032;-69
2021/03/25 10:07:51;;;;;;;19.95;14.00;;;281.70;1536.00;;;;;;5084923;28;20024;-71
2021/03/25 10:10:23;;;;;;;19.83;14.55;;;281.80;1536.00;;;;;;5092814;28;20051;-79
2021/03/25 10:13:01;;;;;;;20.30;14.50;;;281.70;1587.20;;;;;;5086483;28;20481;-83
2021/03/25 10:18:11;;;;;;;18.35;11.57;;;281.80;1536.00;;;;;;5081299;28;20024;-81
2021/03/25 10:20:55;;;;;;;20.25;12.10;;;281.70;1382.40;;;;;;5093013;28;20381;-71
2021/03/25 10:23:50;;;;;;;17.20;12.20;;;256.90;1408.00;;;;;;5072211;28;20032;-81
2021/03/25 10:26:42;;;;;;;21.52;11.50;;;281.80;1356.80;;;;;;5091746;28;20473;-79
2021/03/25 10:29:11;;;;;;;19.33;13.07;;;281.60;1433.60;;;;;;5074205;28;20036;-72
2021/03/25 10:31:49;;;;;;;19.17;12.63;;;256.90;1331.20;;;;;;5081091;28;20029;-70
2021/03/25 10:34:26;;;;;;;18.35;12.43;;;256.80;1356.80;;;;;;5092902;28;20032;-73
2021/03/25 10:37:10;;;;;;;26.83;19.55;;;256.90;1433.60;;;;;;5084871;28;20157;-82
2021/03/25 10:39:40;;;;;;;32.15;19.00;;;281.80;1484.80;;;;;;5093106;28;20074;-79
2021/03/25 10:42:37;;;;;;;19.27;13.27;;;281.70;1331.20;;;;;;5091097;28;20169;-71
2021/03/25 10:45:36;;;;;;;20.63;12.73;;;256.90;1331.20;;;;;;5092827;28;20095;-77
2021/03/25 10:48:04;;;;;;;15.77;10.30;;;;;;;;;;5092556;28;20565;-75
2021/03/25 10:50:53;;;;;;;25.08;14.07;;;;;;;;;;5093102;28;20022;-84
2021/03/25 10:53:22;;;;;;;17.98;12.57;;;;;;;;;;5030514;28;20049;-75
2021/03/25 10:55:49;;;;;;;16.52;11.88;;;;;;;;;;5026679;28;20068;-84
2021/03/25 10:58:49;;;;;;;15.45;11.40;;;;;;;;;;5025666;28;20045;-77
2021/03/25 11:01:17;;;;;;;17.70;11.18;;;;;;;;;;4940830;29;20156;-74
2021/03/25 11:03:43;;;;;;;14.77;10.35;;;;;;;;;;4950638;28;20039;-76
2021/03/25 11:06:18;;;;;;;13.07;9.60;;;;;;;;;;4952496;28;20071;-90
2021/03/25 11:08:44;;;;;;;19.42;10.10;;;;;;;;;;4951886;29;20086;-74
2021/03/25 11:11:16;;;;;;;12.35;8.98;;;;;;;;;;4952178;29;20047;-77
2021/03/25 11:13:43;;;;;;;17.25;9.48;;;;;;;;;;4951492;29;20025;-73
2021/03/25 11:16:18;;;;;;;12.65;9.43;;;;;;;;;;4951527;29;20042;-75
2021/03/25 11:18:46;;;;;;;15.32;9.48;;;;;;;;;;4949367;29;20043;-79
2021/03/25 11:21:15;;;;;;;17.25;10.80;;;;;;;;;;4948151;28;20446;-73
2021/03/25 11:23:42;;;;;;;15.55;9.77;;;;;;;;;;4951522;29;20467;-72
2021/03/25 11:26:08;;;;;;;13.05;10.25;;;;;;;;;;4943991;29;20031;-75
2021/03/25 11:28:37;;;;;;;13.55;9.30;;;282.10;1280.00;;;;;;4950842;28;20130;-82
2021/03/25 11:31:23;;;;;;;16.77;8.88;;;281.80;1254.40;;;;;;4981410;28;20047;-79
2021/03/25 11:33:51;;;;;;;17.17;9.50;;;281.90;1177.60;;;;;;4987367;28;20100;-75
2021/03/25 11:36:41;;;;;;;12.98;7.85;;;282.00;1203.20;;;;;;5017334;28;20041;-74
2021/03/25 11:39:29;;;;;;;11.55;7.38;;;281.90;1152.00;;;;;;5082788;28;20024;-73
2021/03/25 11:42:01;;;;;;;9.25;7.20;;;281.90;1100.80;;;;;;5085982;28;20059;-77
2021/03/25 11:44:39;;;;;;;11.05;8.25;;;256.80;1049.60;;;;;;5091597;28;20024;-71
2021/03/25 11:47:33;;;;;;;10.90;7.80;;;256.80;1024.00;;;;;;5090063;28;20030;-76
2021/03/25 11:50:03;;;;;;;11.93;7.68;;;256.50;1075.20;;;;;;5090888;28;20027;-71
2021/03/25 11:52:44;;;;;;;10.07;7.50;;;256.60;1075.20;;;;;;5091684;28;20560;-70
2021/03/25 11:55:24;;;;;;;10.70;7.47;;;256.60;1100.80;;;;;;5091361;28;20490;-82
2021/03/25 11:57:51;;;;;;;12.85;7.43;;;256.80;1126.40;;;;;;5091973;28;20020;-74
2021/03/25 12:00:19;;;;;;;12.57;7.60;;;256.80;1049.60;;;;;;5089124;28;20032;-75
2021/03/25 12:02:46;;;;;;;11.48;7.60;;;281.60;1100.80;;;;;;5091248;28;20473;-82
2021/03/25 12:05:30;;;;;;;13.82;7.50;;;281.60;1100.80;;;;;;5091671;28;20052;-73
2021/03/25 12:08:17;;;;;;;13.45;7.43;;;281.70;1049.60;;;;;;5091178;28;20032;-75
2021/03/25 12:10:43;;;;;;;11.25;7.70;;;281.60;1049.60;;;;;;5089990;28;20032;-70
2021/03/25 12:13:10;;;;;;;10.50;7.30;;;281.60;1049.60;;;;;;5091093;28;20034;-87
2021/03/25 12:15:36;;;;;;;10.82;7.50;;;256.90;1024.00;;;;;;5093216;28;20035;-72
2021/03/25 12:18:13;;;;;;;10.68;8.02;;;256.90;1049.60;;;;;;5091729;28;20028;-74
2021/03/25 12:20:39;;;;;;;11.70;8.38;;;256.80;1049.60;;;;;;5090963;28;20508;-70
2021/03/25 12:23:21;;;;;;;13.57;8.38;;;256.80;1049.60;;;;;;5091861;28;20028;-71
2021/03/25 12:26:13;;;;;;;10.00;8.00;;;256.70;1049.60;;;;;;5092043;28;20059;-74
2021/03/25 12:28:39;;;;;;;12.43;8.70;;;256.80;1049.60;;;;;;5064396;28;20492;-70
2021/03/25 12:31:06;;;;;;;16.90;8.70;;;256.70;1049.60;;;;;;5090885;28;20436;-70
2021/03/25 12:33:37;;;;;;;15.18;10.00;;;256.70;998.40;;;;;;5091563;28;20107;-70
2021/03/25 12:36:06;;;;;;;14.52;9.15;;;256.90;1024.00;;;;;;5091439;28;20381;-72
2021/03/25 12:38:32;;;;;;;12.43;9.23;;;256.90;1049.60;;;;;;5091209;28;20035;-69
2021/03/25 12:40:57;;;;;;;12.75;9.20;;;281.60;1100.80;;;;;;5089633;28;20024;-77
2021/03/25 12:43:26;;;;;;;12.98;8.25;;;281.60;1049.60;;;;;;5090453;28;20031;-72
2021/03/25 12:45:56;;;;;;;14.88;8.95;;;281.60;1049.60;;;;;;5091515;28;20020;-72
2021/03/25 12:48:26;;;;;;;12.40;8.88;;;256.80;1024.00;;;;;;5089275;28;20030;-75
2021/03/25 12:50:53;;;;;;;12.00;8.20;;;256.90;1049.60;;;;;;5090099;28;20054;-77
2021/03/25 12:53:19;;;;;;;11.15;8.60;;;256.80;1024.00;;;;;;5090770;28;20036;-80
2021/03/25 12:55:45;;;;;;;14.05;7.78;;;256.70;1024.00;;;;;;5093182;28;20024;-68
2021/03/25 12:58:22;;;;;;;12.55;8.77;;;256.80;998.40;;;;;;5094419;28;20030;-70
2021/03/25 13:00:49;;;;;;;11.80;8.52;;;256.70;1024.00;;;;;;5092514;28;20527;-70
2021/03/25 13:03:16;;;;;;;14.15;7.95;;;256.80;1024.00;;;;;;5094657;28;20527;-73
2021/03/25 13:05:41;;;;;;;17.77;10.18;;;256.80;998.40;;;;;;5095444;28;20372;-89
2021/03/25 13:08:08;;;;;;;17.58;10.48;;;281.60;1049.60;;;;;;5092144;28;20115;-71
2021/03/25 13:10:34;;;;;;;11.27;7.70;;;281.70;1075.20;;;;;;5092865;28;20020;-70
2021/03/25 13:13:01;;;;;;;13.25;7.43;;;281.70;1049.60;;;;;;5085304;28;20412;-73
2021/03/25 13:15:28;;;;;;;14.35;9.60;;;281.80;1075.20;;;;;;5095183;28;20024;-73
2021/03/25 13:17:54;;;;;;;13.40;8.32;;;281.90;1049.60;;;;;;5095102;28;20409;-73
2021/03/25 13:20:23;;;;;;;11.80;7.80;;;281.80;998.40;;;;;;5094805;28;20400;-70
2021/03/25 13:22:49;;;;;;;11.15;7.40;;;281.80;998.40;;;;;;5094147;28;20028;-72